createdAt,value
2023-02-19T00:00:25.997Z,93.50
2023-02-19T00:03:10.966Z,93.42
2023-02-19T00:05:55.762Z,92.75
2023-02-19T00:08:40.631Z,92.54
2023-02-19T00:11:28.817Z,91.79
2023-02-19T00:14:19.829Z,92.84
2023-02-19T00:17:04.665Z,92.65
2023-02-19T00:19:49.590Z,92.32
2023-02-19T00:22:34.848Z,91.94
2023-02-19T00:25:19.796Z,93.10
2023-02-19T00:28:05.418Z,92.79
2023-02-19T00:30:50.490Z,92.76
2023-02-19T00:33:36.168Z,92.41
2023-02-19T00:36:22.753Z,92.80
2023-02-19T00:39:08.501Z,92.30
2023-02-19T00:41:53.331Z,92.59
2023-02-19T00:44:38.627Z,92.32
2023-02-19T00:47:23.495Z,92.08
2023-02-19T00:50:08.625Z,92.13
2023-02-19T00:52:53.973Z,92.96
2023-02-19T00:55:38.657Z,92.30
2023-02-19T00:58:23.611Z,92.19
2023-02-19T01:01:09.703Z,92.21
2023-02-19T01:03:55.355Z,91.49
2023-02-19T01:06:41.125Z,91.86
2023-02-19T01:09:26.091Z,92.41
2023-02-19T01:12:10.840Z,92.23
2023-02-19T01:14:56.033Z,92.60
2023-02-19T01:17:40.839Z,92.25
2023-02-19T01:20:26.487Z,92.50
2023-02-19T01:23:13.315Z,92.40
2023-02-19T01:25:58.496Z,91.98
2023-02-19T01:28:44.010Z,91.83
2023-02-19T01:31:30.006Z,91.63
2023-02-19T01:34:15.369Z,91.48
2023-02-19T01:37:00.200Z,92.08
2023-02-19T01:39:45.435Z,92.24
2023-02-19T01:42:31.270Z,92.40
2023-02-19T01:45:27.535Z,92.55
2023-02-19T01:48:19.033Z,92.95
2023-02-19T01:51:09.836Z,92.48
2023-02-19T01:53:58.951Z,93.03
2023-02-19T01:56:46.322Z,92.88
2023-02-19T01:59:32.474Z,93.16
2023-02-19T02:02:17.585Z,92.32
2023-02-19T02:05:04.506Z,92.76
2023-02-19T02:08:12.768Z,92.51
2023-02-19T02:10:58.988Z,92.29
2023-02-19T02:13:43.975Z,91.84
2023-02-19T02:17:04.479Z,91.76
2023-02-19T02:20:18.782Z,92.12
2023-02-19T02:23:26.368Z,91.85
2023-02-19T02:26:39.657Z,91.76
2023-02-19T02:30:02.041Z,92.80
2023-02-19T02:33:11.513Z,92.71
2023-02-19T02:35:58.435Z,93.07
2023-02-19T02:38:44.898Z,93.27
2023-02-19T02:41:30.130Z,92.56
2023-02-19T02:44:15.654Z,92.26
2023-02-19T02:47:00.502Z,92.91
2023-02-19T02:50:05.154Z,92.86
2023-02-19T02:53:14.663Z,92.60
2023-02-19T02:56:00.398Z,92.56
2023-02-19T02:58:47.636Z,92.38
2023-02-19T03:01:57.375Z,90.54
2023-02-19T03:05:09.675Z,90.63
2023-02-19T03:08:16.282Z,90.35
2023-02-19T03:11:24.203Z,91.20
2023-02-19T03:14:34.775Z,91.35
2023-02-19T03:17:47.697Z,91.72
2023-02-19T03:20:36.133Z,91.63
2023-02-19T03:23:42.971Z,92.33
2023-02-19T03:26:29.318Z,91.97
2023-02-19T03:29:24.038Z,92.02
2023-02-19T03:32:15.148Z,91.40
2023-02-19T03:35:11.682Z,91.66
2023-02-19T03:38:04.288Z,91.60
2023-02-19T03:41:04.303Z,91.18
2023-02-19T03:44:01.984Z,90.65
2023-02-19T03:47:04.751Z,91.11
2023-02-19T03:49:51.302Z,91.36
2023-02-19T03:53:01.795Z,90.55
2023-02-19T03:56:03.439Z,91.07
2023-02-19T03:59:15.577Z,91.37
2023-02-19T04:02:07.592Z,90.90
2023-02-19T04:05:15.952Z,90.59
2023-02-19T04:08:11.084Z,90.79
2023-02-19T04:10:58.251Z,91.98
2023-02-19T04:13:47.880Z,91.61
2023-02-19T04:16:36.930Z,92.60
2023-02-19T04:19:25.862Z,91.59
2023-02-19T04:22:12.122Z,92.27
2023-02-19T04:24:57.608Z,91.72
2023-02-19T04:27:45.644Z,91.11
2023-02-19T04:30:31.558Z,91.11
2023-02-19T04:33:16.508Z,89.86
2023-02-19T04:36:01.787Z,90.47
2023-02-19T04:38:46.503Z,91.02
2023-02-19T04:41:31.556Z,90.54
2023-02-19T04:44:16.579Z,90.16
2023-02-19T04:47:02.496Z,90.13
2023-02-19T04:49:48.329Z,89.81
2023-02-19T04:52:33.662Z,89.04
2023-02-19T04:55:18.640Z,89.05
2023-02-19T04:58:04.045Z,88.74
2023-02-19T05:00:53.042Z,89.77
2023-02-19T05:03:38.145Z,89.57
2023-02-19T05:06:23.219Z,89.75
2023-02-19T05:09:08.686Z,89.18
2023-02-19T05:11:53.798Z,89.92
2023-02-19T05:14:39.088Z,91.97
2023-02-19T05:17:24.019Z,93.42
2023-02-19T05:20:09.135Z,92.46
2023-02-19T05:22:54.666Z,90.48
2023-02-19T05:25:39.425Z,90.27
2023-02-19T05:28:29.152Z,92.57
2023-02-19T05:31:15.456Z,90.19
2023-02-19T05:34:00.892Z,89.99
2023-02-19T05:36:46.101Z,90.29
2023-02-19T05:39:30.939Z,90.80
2023-02-19T05:42:15.809Z,91.61
2023-02-19T05:45:00.726Z,89.51
2023-02-19T05:47:45.537Z,93.68
2023-02-19T05:50:33.276Z,92.07
2023-02-19T05:53:18.057Z,93.49
2023-02-19T05:56:03.831Z,92.03
2023-02-19T05:58:49.392Z,93.18
2023-02-19T06:01:35.504Z,91.46
2023-02-19T06:04:21.504Z,93.17
2023-02-19T06:07:06.421Z,93.01
2023-02-19T06:09:51.397Z,92.42
2023-02-19T06:12:37.000Z,92.71
2023-02-19T06:15:22.051Z,92.81
2023-02-19T06:18:07.585Z,93.47
2023-02-19T06:20:52.361Z,92.50
2023-02-19T06:23:38.087Z,91.47
2023-02-19T06:26:24.837Z,92.20
2023-02-19T06:29:09.978Z,92.86
2023-02-19T06:31:55.002Z,92.64
2023-02-19T06:34:40.032Z,91.24
2023-02-19T06:37:25.024Z,89.58
2023-02-19T06:40:11.075Z,90.21
2023-02-19T06:42:56.657Z,92.06
2023-02-19T06:45:41.529Z,91.39
2023-02-19T06:48:27.854Z,92.01
2023-02-19T06:51:15.187Z,91.67
2023-02-19T06:54:02.540Z,93.88
2023-02-19T06:56:48.079Z,93.81
2023-02-19T06:59:34.173Z,91.27
2023-02-19T07:02:19.281Z,91.85
2023-02-19T07:05:05.711Z,91.09
2023-02-19T07:07:51.891Z,92.76
2023-02-19T07:10:36.793Z,93.00
2023-02-19T07:13:22.394Z,92.91
2023-02-19T07:16:09.231Z,92.39
2023-02-19T07:18:57.902Z,93.09
2023-02-19T07:21:43.089Z,89.70
2023-02-19T07:24:27.992Z,90.45
2023-02-19T07:27:12.766Z,91.13
2023-02-19T07:29:58.144Z,91.34
2023-02-19T07:32:45.238Z,90.01
2023-02-19T07:35:30.258Z,91.42
2023-02-19T07:38:19.670Z,91.17
2023-02-19T07:41:06.519Z,91.26
2023-02-19T07:43:51.415Z,91.46
2023-02-19T07:46:36.289Z,90.31
2023-02-19T07:49:21.519Z,89.79
2023-02-19T07:52:06.329Z,89.77
2023-02-19T07:54:51.256Z,90.25
2023-02-19T07:57:36.420Z,90.23
2023-02-19T08:00:21.121Z,90.13
2023-02-19T08:03:06.743Z,91.61
2023-02-19T08:05:53.659Z,90.76
2023-02-19T08:08:39.741Z,91.54
2023-02-19T08:11:43.323Z,91.32
2023-02-19T08:14:29.205Z,91.10
2023-02-19T08:17:15.140Z,90.37
2023-02-19T08:20:00.002Z,91.17
2023-02-19T08:22:45.270Z,89.00
2023-02-19T08:25:32.286Z,89.94
2023-02-19T08:28:18.287Z,89.99
2023-02-19T08:31:05.753Z,90.16
2023-02-19T08:33:51.809Z,89.96
2023-02-19T08:36:38.338Z,89.17
2023-02-19T08:39:23.314Z,89.05
2023-02-19T08:42:09.492Z,88.62
2023-02-19T08:44:55.004Z,90.07
2023-02-19T08:47:42.844Z,90.12
2023-02-19T08:50:29.052Z,88.21
2023-02-19T08:53:13.834Z,88.45
2023-02-19T08:55:58.633Z,88.23
2023-02-19T08:58:44.628Z,87.98
2023-02-19T09:01:29.723Z,87.74
2023-02-19T09:04:15.061Z,87.79
2023-02-19T09:07:00.130Z,87.76
2023-02-19T09:09:45.188Z,88.10
2023-02-19T09:12:30.069Z,87.06
2023-02-19T09:15:15.083Z,87.93
2023-02-19T09:18:00.673Z,88.92
2023-02-19T09:20:45.581Z,88.39
2023-02-19T09:23:34.594Z,87.10
2023-02-19T09:26:19.729Z,85.61
2023-02-19T09:29:06.299Z,85.27
2023-02-19T09:31:51.246Z,86.19
2023-02-19T09:34:38.705Z,85.17
2023-02-19T09:37:27.935Z,84.79
2023-02-19T09:40:14.541Z,83.68
2023-02-19T09:43:00.967Z,83.90
2023-02-19T09:45:48.846Z,83.51
2023-02-19T09:48:33.711Z,83.97
2023-02-19T09:51:19.700Z,85.63
2023-02-19T09:54:07.645Z,82.76
2023-02-19T09:56:57.644Z,82.53
2023-02-19T09:59:52.390Z,83.05
2023-02-19T10:02:37.440Z,83.36
2023-02-19T10:05:25.747Z,81.32
2023-02-19T10:08:18.967Z,80.31
2023-02-19T10:11:06.388Z,81.56
2023-02-19T10:14:00.984Z,80.84
2023-02-19T10:16:49.025Z,80.62
2023-02-19T10:19:35.878Z,79.80
2023-02-19T10:22:21.468Z,78.72
2023-02-19T10:25:06.752Z,78.87
2023-02-19T10:27:51.692Z,79.93
2023-02-19T10:30:37.305Z,78.20
2023-02-19T10:33:23.763Z,78.44
2023-02-19T10:36:25.033Z,79.10
2023-02-19T10:39:45.200Z,78.14
2023-02-19T10:42:30.547Z,77.90
2023-02-19T10:45:21.216Z,76.54
2023-02-19T10:48:21.100Z,76.91
2023-02-19T10:51:11.039Z,74.98
2023-02-19T10:54:24.183Z,74.47
2023-02-19T10:57:15.716Z,75.93
2023-02-19T11:00:19.119Z,75.84
2023-02-19T11:03:20.533Z,74.48
2023-02-19T11:06:10.208Z,72.23
2023-02-19T11:09:02.169Z,73.20
2023-02-19T11:11:52.841Z,74.07
2023-02-19T11:14:43.597Z,73.56
2023-02-19T11:17:30.456Z,71.84
2023-02-19T11:20:18.034Z,73.34
2023-02-19T11:23:15.464Z,73.35
2023-02-19T11:26:03.816Z,71.40
2023-02-19T11:28:57.565Z,70.49
2023-02-19T11:31:42.405Z,69.28
2023-02-19T11:34:30.007Z,69.31
2023-02-19T11:37:21.855Z,66.28
2023-02-19T11:40:12.049Z,68.35
2023-02-19T11:43:19.251Z,65.95
2023-02-19T11:46:26.854Z,65.42
2023-02-19T11:49:41.505Z,68.34
2023-02-19T11:52:51.013Z,65.66
2023-02-19T11:56:14.449Z,65.81
2023-02-19T11:59:24.311Z,64.26
2023-02-19T12:02:20.954Z,64.10
2023-02-19T12:05:39.133Z,64.49
2023-02-19T12:08:34.703Z,62.80
2023-02-19T12:11:35.449Z,62.59
2023-02-19T12:14:46.121Z,61.04
2023-02-19T12:17:46.459Z,58.56
2023-02-19T12:20:50.110Z,59.88
2023-02-19T12:23:53.645Z,59.25
2023-02-19T12:27:24.933Z,59.60
2023-02-19T12:30:47.328Z,62.46
2023-02-19T12:33:49.699Z,60.11
2023-02-19T12:37:02.045Z,58.46
2023-02-19T12:40:15.121Z,56.55
2023-02-19T12:43:20.839Z,55.90
2023-02-19T12:46:17.975Z,58.04
2023-02-19T12:49:14.090Z,58.46
2023-02-19T12:52:07.616Z,59.61
2023-02-19T12:55:01.627Z,60.94
2023-02-19T12:57:47.522Z,59.78
2023-02-19T13:00:39.487Z,58.76
2023-02-19T13:03:33.649Z,57.48
2023-02-19T13:06:38.982Z,56.79
2023-02-19T13:09:49.122Z,58.97
2023-02-19T13:12:38.076Z,58.36
2023-02-19T13:15:45.347Z,53.16
2023-02-19T13:18:36.858Z,53.06
2023-02-19T13:21:45.049Z,51.61
2023-02-19T13:24:38.312Z,50.13
2023-02-19T13:28:03.437Z,50.27
2023-02-19T13:31:14.721Z,49.50
2023-02-19T13:34:06.081Z,51.89
2023-02-19T13:36:53.143Z,52.24
2023-02-19T13:39:48.563Z,50.07
2023-02-19T13:42:36.182Z,47.12
2023-02-19T13:45:34.572Z,45.71
2023-02-19T13:48:31.123Z,43.72
2023-02-19T13:51:20.613Z,45.17
2023-02-19T13:54:22.434Z,46.83
2023-02-19T13:57:25.190Z,49.36
2023-02-19T14:00:50.384Z,50.46
2023-02-19T14:03:37.041Z,52.35
2023-02-19T14:06:22.137Z,54.48
2023-02-19T14:09:44.050Z,55.10
2023-02-19T14:12:35.147Z,56.94
2023-02-19T14:15:43.729Z,55.95
2023-02-19T14:18:46.844Z,56.40
2023-02-19T14:21:40.215Z,56.45
2023-02-19T14:24:25.722Z,56.46
2023-02-19T14:27:10.823Z,56.80
2023-02-19T14:29:56.509Z,56.94
2023-02-19T14:32:45.094Z,57.23
2023-02-19T14:35:40.971Z,58.75
2023-02-19T14:38:36.493Z,58.77
2023-02-19T14:41:23.693Z,59.16
2023-02-19T14:44:16.828Z,58.15
2023-02-19T14:47:14.367Z,59.91
2023-02-19T14:50:09.419Z,58.81
2023-02-19T14:53:00.724Z,58.24
2023-02-19T14:55:46.640Z,58.35
2023-02-19T14:58:33.792Z,59.50
2023-02-19T15:01:26.681Z,59.23
2023-02-19T15:04:23.760Z,59.65
2023-02-19T15:07:17.282Z,60.08
2023-02-19T15:10:07.564Z,60.10
2023-02-19T15:12:59.635Z,60.13
2023-02-19T15:15:45.978Z,59.54
2023-02-19T15:18:36.103Z,59.45
2023-02-19T15:21:39.058Z,59.56
2023-02-19T15:24:24.366Z,59.43
2023-02-19T15:27:18.680Z,59.32
2023-02-19T15:30:03.998Z,61.30
2023-02-19T15:32:55.036Z,60.80
2023-02-19T15:35:42.384Z,60.81
2023-02-19T15:38:29.056Z,60.71
2023-02-19T15:41:24.195Z,62.03
2023-02-19T15:44:45.104Z,61.82
2023-02-19T15:47:38.563Z,62.47
2023-02-19T15:50:26.342Z,61.80
2023-02-19T15:53:23.950Z,62.46
2023-02-19T15:56:12.221Z,63.87
2023-02-19T15:59:06.383Z,62.12
2023-02-19T16:01:52.030Z,62.64
2023-02-19T16:04:38.498Z,63.29
2023-02-19T16:07:31.763Z,69.69
2023-02-19T16:10:32.893Z,65.84
2023-02-19T16:13:26.283Z,64.99
2023-02-19T16:16:20.371Z,69.82
2023-02-19T16:19:05.261Z,68.63
2023-02-19T16:21:52.761Z,67.89
2023-02-19T16:24:45.109Z,68.26
2023-02-19T16:27:35.813Z,73.64
2023-02-19T16:30:29.744Z,73.32
2023-02-19T16:33:43.630Z,73.00
2023-02-19T16:36:42.342Z,69.59
2023-02-19T16:39:27.994Z,67.96
2023-02-19T16:42:15.003Z,73.78
2023-02-19T16:45:01.412Z,77.06
2023-02-19T16:47:51.431Z,72.26
2023-02-19T16:50:36.666Z,69.97
2023-02-19T16:53:25.199Z,73.87
2023-02-19T16:56:18.742Z,72.20
2023-02-19T16:59:04.794Z,74.94
2023-02-19T17:01:50.066Z,74.38
2023-02-19T17:04:35.911Z,71.44
2023-02-19T17:07:22.284Z,72.08
2023-02-19T17:10:07.876Z,74.06
2023-02-19T17:12:55.719Z,75.71
2023-02-19T17:15:43.545Z,77.12
2023-02-19T17:18:31.553Z,73.28
2023-02-19T17:21:20.906Z,76.96
2023-02-19T17:24:06.147Z,75.03
2023-02-19T17:26:54.072Z,78.46
2023-02-19T17:29:41.540Z,74.29
2023-02-19T17:32:26.771Z,75.19
2023-02-19T17:35:13.887Z,76.66
2023-02-19T17:37:59.055Z,76.46
2023-02-19T17:40:45.357Z,74.34
2023-02-19T17:43:31.391Z,79.15
2023-02-19T17:46:24.212Z,78.60
2023-02-19T17:49:12.801Z,74.56
2023-02-19T17:51:59.889Z,75.17
2023-02-19T17:54:45.176Z,77.61
2023-02-19T17:57:33.358Z,75.15
2023-02-19T18:00:21.539Z,80.03
2023-02-19T18:03:07.825Z,75.38
2023-02-19T18:05:53.259Z,79.72
2023-02-19T18:08:39.562Z,76.81
2023-02-19T18:11:25.217Z,79.34
2023-02-19T18:14:10.400Z,79.99
2023-02-19T18:16:59.766Z,80.80
2023-02-19T18:19:45.079Z,80.18
2023-02-19T18:22:30.731Z,78.23
2023-02-19T18:25:20.273Z,78.78
2023-02-19T18:28:11.676Z,78.03
2023-02-19T18:30:59.089Z,75.50
2023-02-19T18:33:44.124Z,74.94
2023-02-19T18:36:30.533Z,77.17
2023-02-19T18:39:16.070Z,77.42
2023-02-19T18:42:02.107Z,80.33
2023-02-19T18:44:49.249Z,77.00
2023-02-19T18:47:38.102Z,77.63
2023-02-19T18:50:23.252Z,74.61
2023-02-19T18:53:08.164Z,74.87
2023-02-19T18:55:54.793Z,80.97
2023-02-19T18:58:39.806Z,78.72
2023-02-19T19:01:24.857Z,80.21
2023-02-19T19:04:11.205Z,77.76
2023-02-19T19:06:56.642Z,78.50
2023-02-19T19:09:44.115Z,73.97
2023-02-19T19:12:29.112Z,77.89
2023-02-19T19:15:18.174Z,78.29
2023-02-19T19:18:05.098Z,76.61
2023-02-19T19:20:50.259Z,80.09
2023-02-19T19:23:37.073Z,79.29
2023-02-19T19:26:22.006Z,80.23
2023-02-19T19:29:08.346Z,80.46
2023-02-19T19:31:55.876Z,78.34
2023-02-19T19:34:43.050Z,75.83
2023-02-19T19:37:29.405Z,78.23
2023-02-19T19:40:20.787Z,79.54
2023-02-19T19:43:06.115Z,80.02
2023-02-19T19:45:51.746Z,79.28
2023-02-19T19:48:41.439Z,78.40
2023-02-19T19:51:32.148Z,80.48
2023-02-19T19:54:20.036Z,79.96
2023-02-19T19:57:05.636Z,77.98
2023-02-19T19:59:55.172Z,80.21
2023-02-19T20:02:42.504Z,76.17
2023-02-19T20:05:27.548Z,78.12
2023-02-19T20:08:13.570Z,77.44
2023-02-19T20:10:59.203Z,77.91
2023-02-19T20:13:45.268Z,79.33
2023-02-19T20:16:31.693Z,81.00
2023-02-19T20:19:18.306Z,77.37
2023-02-19T20:22:04.762Z,78.52
2023-02-19T20:24:52.226Z,79.94
2023-02-19T20:27:38.728Z,78.10
2023-02-19T20:30:25.353Z,81.58
2023-02-19T20:33:11.530Z,77.68
2023-02-19T20:35:57.944Z,80.80
2023-02-19T20:38:43.989Z,82.03
2023-02-19T20:41:29.437Z,82.77
2023-02-19T20:44:15.639Z,78.24
2023-02-19T20:47:02.253Z,83.40
2023-02-19T20:49:48.887Z,81.98
2023-02-19T20:52:33.773Z,78.47
2023-02-19T20:55:19.132Z,82.42
2023-02-19T20:58:04.073Z,80.64
2023-02-19T21:00:48.861Z,82.98
2023-02-19T21:03:34.701Z,78.12
2023-02-19T21:06:19.794Z,81.88
2023-02-19T21:09:06.230Z,82.59
2023-02-19T21:11:51.695Z,82.83
2023-02-19T21:14:37.484Z,78.33
2023-02-19T21:17:23.613Z,81.03
2023-02-19T21:20:11.126Z,82.20
2023-02-19T21:22:56.191Z,82.62
2023-02-19T21:25:41.195Z,82.97
2023-02-19T21:28:26.335Z,80.63
2023-02-19T21:31:11.742Z,83.11
2023-02-19T21:33:56.742Z,83.38
2023-02-19T21:36:41.893Z,80.06
2023-02-19T21:39:28.308Z,84.25
2023-02-19T21:42:13.682Z,84.36
2023-02-19T21:44:58.681Z,80.93
2023-02-19T21:47:44.187Z,81.76
2023-02-19T21:50:29.188Z,84.10
2023-02-19T21:53:15.151Z,83.30
2023-02-19T21:56:00.038Z,80.02
2023-02-19T21:58:45.020Z,82.12
2023-02-19T22:01:35.071Z,81.28
2023-02-19T22:04:23.704Z,82.51
2023-02-19T22:07:08.771Z,81.81
2023-02-19T22:09:53.751Z,82.99
2023-02-19T22:12:38.848Z,82.57
2023-02-19T22:15:23.711Z,81.92
2023-02-19T22:18:08.532Z,81.83
2023-02-19T22:20:53.381Z,80.79
2023-02-19T22:23:38.449Z,84.44
2023-02-19T22:26:33.344Z,81.53
2023-02-19T22:29:18.362Z,81.31
2023-02-19T22:32:03.416Z,81.57
2023-02-19T22:34:48.423Z,80.17
2023-02-19T22:37:33.588Z,80.94
2023-02-19T22:40:18.456Z,82.20
2023-02-19T22:43:04.531Z,79.98
2023-02-19T22:45:49.554Z,82.68
2023-02-19T22:48:34.423Z,81.47
2023-02-19T22:51:22.155Z,80.64
2023-02-19T22:54:07.449Z,81.33
2023-02-19T22:56:53.280Z,81.87
2023-02-19T22:59:38.086Z,81.01
2023-02-19T23:02:22.917Z,81.23
2023-02-19T23:05:10.568Z,81.57
2023-02-19T23:07:55.801Z,81.33
2023-02-19T23:10:40.918Z,83.00
2023-02-19T23:13:26.117Z,81.62
2023-02-19T23:16:11.882Z,81.33
2023-02-19T23:18:56.761Z,82.10
2023-02-19T23:21:44.720Z,82.98
2023-02-19T23:24:29.816Z,82.58
2023-02-19T23:27:15.021Z,81.28
2023-02-19T23:29:59.977Z,81.62
2023-02-19T23:32:45.027Z,81.98
2023-02-19T23:35:30.751Z,83.09
2023-02-19T23:38:15.639Z,82.79
2023-02-19T23:41:00.768Z,82.18
2023-02-19T23:43:45.714Z,83.00
2023-02-19T23:46:31.649Z,82.63
2023-02-19T23:49:17.753Z,83.53
2023-02-19T23:52:03.483Z,83.46
2023-02-19T23:54:48.549Z,83.14
2023-02-19T23:57:33.348Z,83.61
